Time,TemperatureF,DewpointF,PressureIn,WindDirection,WindDirectionDegrees,WindSpeedMPH,WindSpeedGustMPH,Humidity,HourlyPrecipIn,Conditions,Clouds,dailyrainin,SoftwareType,DateUTC
2013-06-09 00:01:00,51.9,51.0,30.09,SSE,148,0.0,1.0,96,0.00,,,0.00,weatherlink.com 1.10,2013-06-09 04:01:00,
2013-06-09 00:16:00,52.0,51.0,30.09,SSE,153,1.0,3.0,96,0.00,,,0.00,weatherlink.com 1.10,2013-06-09 04:16:00,
2013-06-09 00:31:00,52.0,51.0,30.09,SSE,156,0.0,1.0,96,0.00,,,0.00,weatherlink.com 1.10,2013-06-09 04:31:00,
2013-06-09 00:46:00,51.8,51.0,30.10,South,178,1.0,4.0,96,0.00,,,0.00,weatherlink.com 1.10,2013-06-09 04:46:00,
2013-06-09 01:01:00,51.8,51.0,30.10,South,177,2.0,2.0,95,0.00,,,0.00,weatherlink.com 1.10,2013-06-09 05:01:00,
2013-06-09 01:16:00,51.7,50.0,30.09,South,173,0.0,5.0,95,0.00,,,0.00,weatherlink.com 1.10,2013-06-09 05:16:00,
2013-06-09 01:31:00,51.6,50.0,30.09,South,176,2.0,5.0,94,0.00,,,0.00,weatherlink.com 1.10,2013-06-09 05:31:00,
2013-06-09 01:46:00,51.4,50.0,30.09,SSE,167,0.0,2.0,94,0.00,,,0.00,weatherlink.com 1.10,2013-06-09 05:46:00,
2013-06-09 02:01:00,51.2,50.0,30.10,SSE,167,2.0,3.0,94,0.00,,,0.00,weatherlink.com 1.10,2013-06-09 06:01:00,
2013-06-09 02:16:00,51.2,50.0,30.09,SSE,165,0.0,3.0,94,0.00,,,0.00,weatherlink.com 1.10,2013-06-09 06:16:00,
2013-06-09 02:31:00,50.8,50.0,30.10,SSE,166,0.0,3.0,95,0.00,,,0.00,weatherlink.com 1.10,2013-06-09 06:31:00,
2013-06-09 02:47:00,50.6,49.0,30.10,SSE,161,2.0,3.0,95,0.00,,,0.00,weatherlink.com 1.10,2013-06-09 06:47:00,
2013-06-09 03:02:00,50.5,49.0,30.10,SSE,161,0.0,2.0,95,0.00,,,0.00,weatherlink.com 1.10,2013-06-09 07:02:00,
2013-06-09 03:17:00,50.3,49.0,30.11,SSE,163,2.0,4.0,95,0.01,,,0.01,weatherlink.com 1.10,2013-06-09 07:17:00,
2013-06-09 03:32:00,50.5,49.0,30.11,South,173,1.0,5.0,95,0.01,,,0.01,weatherlink.com 1.10,2013-06-09 07:32:00,
2013-06-09 03:47:00,50.4,49.0,30.11,South,170,0.0,1.0,94,0.01,,,0.01,weatherlink.com 1.10,2013-06-09 07:47:00,
2013-06-09 04:02:00,49.9,49.0,30.12,South,170,0.0,0.0,95,0.01,,,0.01,weatherlink.com 1.10,2013-06-09 08:02:00,
2013-06-09 04:17:00,49.7,48.0,30.11,South,170,0.0,0.0,95,0.00,,,0.01,weatherlink.com 1.10,2013-06-09 08:17:00,
2013-06-09 04:32:00,49.4,48.0,30.12,South,170,0.0,0.0,95,0.00,,,0.01,weatherlink.com 1.10,2013-06-09 08:32:00,
2013-06-09 04:47:00,49.1,48.0,30.12,South,170,0.0,0.0,95,0.00,,,0.01,weatherlink.com 1.10,2013-06-09 08:47:00,
2013-06-09 05:02:00,49.0,48.0,30.12,South,170,0.0,0.0,96,0.00,,,0.01,weatherlink.com 1.10,2013-06-09 09:02:00,
2013-06-09 05:17:00,48.7,48.0,30.13,South,170,0.0,0.0,96,0.00,,,0.01,weatherlink.com 1.10,2013-06-09 09:17:00,
2013-06-09 05:32:00,48.9,48.0,30.13,South,170,0.0,0.0,97,0.00,,,0.01,weatherlink.com 1.10,2013-06-09 09:32:00,
2013-06-09 05:47:00,48.8,48.0,30.13,South,170,0.0,0.0,97,0.00,,,0.01,weatherlink.com 1.10,2013-06-09 09:47:00,
2013-06-09 06:02:00,49.0,48.0,30.13,South,170,0.0,1.0,97,0.00,,,0.01,weatherlink.com 1.10,2013-06-09 10:02:00,
2013-06-09 06:17:00,49.6,49.0,30.14,South,170,0.0,2.0,97,0.00,,,0.01,weatherlink.com 1.10,2013-06-09 10:17:00,
2013-06-09 06:32:00,50.0,49.0,30.14,South,170,1.0,2.0,97,0.00,,,0.01,weatherlink.com 1.10,2013-06-09 10:32:00,
2013-06-09 06:47:00,50.8,50.0,30.14,South,170,0.0,0.0,96,0.00,,,0.01,weatherlink.com 1.10,2013-06-09 10:47:00,
2013-06-09 07:02:00,52.4,51.0,30.14,South,170,2.0,4.0,96,0.00,,,0.01,weatherlink.com 1.10,2013-06-09 11:02:00,
2013-06-09 07:17:00,54.2,53.0,30.15,SSE,160,0.0,3.0,94,0.00,,,0.01,weatherlink.com 1.10,2013-06-09 11:17:00,
2013-06-09 07:32:00,55.1,53.0,30.15,SSE,160,0.0,1.0,93,0.00,,,0.01,weatherlink.com 1.10,2013-06-09 11:32:00,
2013-06-09 07:47:00,56.6,54.0,30.15,SSE,160,0.0,2.0,92,0.00,,,0.01,weatherlink.com 1.10,2013-06-09 11:47:00,
2013-06-09 08:17:00,57.1,54.0,30.16,South,186,1.0,5.0,89,0.00,,,0.01,weatherlink.com 1.10,2013-06-09 12:17:00,
2013-06-09 08:32:00,57.7,55.0,30.16,South,169,2.0,3.0,90,0.00,,,0.01,weatherlink.com 1.10,2013-06-09 12:32:00,
2013-06-09 08:47:00,59.2,55.0,30.15,ESE,111,1.0,5.0,87,0.00,,,0.01,weatherlink.com 1.10,2013-06-09 12:47:00,
2013-06-09 09:02:00,61.4,56.0,30.16,SSE,163,2.0,3.0,83,0.00,,,0.01,weatherlink.com 1.10,2013-06-09 13:02:00,
2013-06-09 09:17:00,63.2,58.0,30.16,SE,140,0.0,4.0,82,0.00,,,0.01,weatherlink.com 1.10,2013-06-09 13:17:00,
2013-06-09 09:32:00,66.2,59.0,30.16,ESE,109,0.0,5.0,77,0.00,,,0.01,weatherlink.com 1.10,2013-06-09 13:32:00,
2013-06-09 09:48:00,68.3,58.0,30.16,SE,140,3.0,4.0,70,0.00,,,0.01,weatherlink.com 1.10,2013-06-09 13:48:00,
2013-06-09 10:03:00,69.5,57.0,30.16,ENE,68,3.0,7.0,65,0.00,,,0.01,weatherlink.com 1.10,2013-06-09 14:03:00,
2013-06-09 10:18:00,69.9,57.0,30.15,ENE,71,1.0,7.0,63,0.00,,,0.01,weatherlink.com 1.10,2013-06-09 14:18:00,
2013-06-09 10:33:00,70.3,55.0,30.14,East,84,6.0,7.0,59,0.00,,,0.01,weatherlink.com 1.10,2013-06-09 14:33:00,
2013-06-09 10:48:00,70.5,56.0,30.14,East,89,5.0,9.0,60,0.00,,,0.01,weatherlink.com 1.10,2013-06-09 14:48:00,
2013-06-09 11:03:00,71.7,55.0,30.14,ESE,122,4.0,7.0,57,0.00,,,0.01,weatherlink.com 1.10,2013-06-09 15:03:00,
2013-06-09 11:18:00,72.4,54.0,30.14,ESE,102,4.0,9.0,53,0.00,,,0.01,weatherlink.com 1.10,2013-06-09 15:18:00,
2013-06-09 11:33:00,72.8,56.0,30.13,East,90,2.0,7.0,56,0.00,,,0.01,weatherlink.com 1.10,2013-06-09 15:33:00,
2013-06-09 11:48:00,73.7,56.0,30.13,ENE,78,3.0,8.0,54,0.00,,,0.01,weatherlink.com 1.10,2013-06-09 15:48:00,
2013-06-09 12:03:00,73.1,54.0,30.14,ENE,70,4.0,8.0,51,0.00,,,0.01,weatherlink.com 1.10,2013-06-09 16:03:00,
2013-06-09 12:18:00,73.6,55.0,30.13,NE,43,7.0,7.0,53,0.00,,,0.01,weatherlink.com 1.10,2013-06-09 16:18:00,
2013-06-09 12:33:00,73.9,57.0,30.12,ENE,73,3.0,8.0,55,0.00,,,0.01,weatherlink.com 1.10,2013-06-09 16:33:00,
2013-06-09 12:48:00,74.8,58.0,30.12,East,91,3.0,9.0,56,0.00,,,0.01,weatherlink.com 1.10,2013-06-09 16:48:00,
2013-06-09 13:03:00,74.8,56.0,30.12,ENE,59,5.0,8.0,52,0.00,,,0.01,weatherlink.com 1.10,2013-06-09 17:03:00,
2013-06-09 13:18:00,75.5,57.0,30.12,NE,41,4.0,7.0,53,0.00,,,0.01,weatherlink.com 1.10,2013-06-09 17:18:00,
2013-06-09 13:33:00,75.4,56.0,30.12,East,80,5.0,6.0,52,0.00,,,0.01,weatherlink.com 1.10,2013-06-09 17:33:00,
2013-06-09 13:48:00,74.6,58.0,30.12,North,5,4.0,8.0,56,0.00,,,0.01,weatherlink.com 1.10,2013-06-09 17:48:00,
2013-06-09 14:03:00,73.5,58.0,30.11,North,11,4.0,8.0,59,0.00,,,0.01,weatherlink.com 1.10,2013-06-09 18:03:00,
2013-06-09 14:18:00,73.5,58.0,30.10,NE,47,6.0,8.0,58,0.00,,,0.01,weatherlink.com 1.10,2013-06-09 18:18:00,
2013-06-09 14:33:00,73.1,57.0,30.10,NE,35,4.0,7.0,58,0.00,,,0.01,weatherlink.com 1.10,2013-06-09 18:33:00,
2013-06-09 14:48:00,72.6,57.0,30.10,NNE,18,5.0,8.0,58,0.00,,,0.01,weatherlink.com 1.10,2013-06-09 18:48:00,
2013-06-09 15:03:00,72.9,57.0,30.09,NE,47,6.0,7.0,58,0.00,,,0.01,weatherlink.com 1.10,2013-06-09 19:03:00,
2013-06-09 15:18:00,72.1,56.0,30.09,ENE,66,2.0,10.0,58,0.00,,,0.01,weatherlink.com 1.10,2013-06-09 19:18:00,
2013-06-09 15:33:00,71.9,56.0,30.09,ENE,58,1.0,7.0,58,0.00,,,0.01,weatherlink.com 1.10,2013-06-09 19:33:00,
2013-06-09 15:48:00,72.1,56.0,30.08,NE,38,5.0,8.0,58,0.00,,,0.01,weatherlink.com 1.10,2013-06-09 19:48:00,
2013-06-09 16:03:00,72.5,57.0,30.07,ENE,57,8.0,8.0,58,0.00,,,0.01,weatherlink.com 1.10,2013-06-09 20:03:00,
2013-06-09 16:18:00,73.2,57.0,30.07,NE,45,4.0,9.0,57,0.00,,,0.01,weatherlink.com 1.10,2013-06-09 20:18:00,
2013-06-09 16:33:00,73.4,58.0,30.06,ENE,66,3.0,9.0,58,0.00,,,0.01,weatherlink.com 1.10,2013-06-09 20:33:00,
2013-06-09 16:48:00,73.5,57.0,30.06,North,360,2.0,11.0,56,0.00,,,0.01,weatherlink.com 1.10,2013-06-09 20:48:00,
2013-06-09 17:03:00,74.0,57.0,30.06,ENE,72,3.0,9.0,56,0.00,,,0.01,weatherlink.com 1.10,2013-06-09 21:03:00,
2013-06-09 17:18:00,74.3,58.0,30.05,NNE,15,7.0,9.0,57,0.00,,,0.01,weatherlink.com 1.10,2013-06-09 21:18:00,
2013-06-09 17:33:00,74.4,57.0,30.05,NE,56,3.0,8.0,55,0.00,,,0.01,weatherlink.com 1.10,2013-06-09 21:33:00,
2013-06-09 17:48:00,73.5,58.0,30.05,NE,38,4.0,7.0,58,0.00,,,0.01,weatherlink.com 1.10,2013-06-09 21:48:00,
2013-06-09 18:03:00,73.5,57.0,30.04,North,360,4.0,7.0,57,0.00,,,0.01,weatherlink.com 1.10,2013-06-09 22:03:00,
2013-06-09 18:18:00,73.2,57.0,30.04,ENE,74,3.0,5.0,57,0.00,,,0.01,weatherlink.com 1.10,2013-06-09 22:18:00,
2013-06-09 18:33:00,72.3,58.0,30.02,NNE,31,4.0,6.0,60,0.00,,,0.01,weatherlink.com 1.10,2013-06-09 22:33:00,
2013-06-09 18:48:00,72.0,58.0,30.03,NE,52,1.0,5.0,62,0.00,,,0.01,weatherlink.com 1.10,2013-06-09 22:48:00,
2013-06-09 19:03:00,72.6,58.0,30.03,NE,53,3.0,5.0,61,0.00,,,0.01,weatherlink.com 1.10,2013-06-09 23:03:00,
2013-06-09 19:18:00,72.4,58.0,30.02,NNE,32,3.0,7.0,60,0.00,,,0.01,weatherlink.com 1.10,2013-06-09 23:18:00,
2013-06-09 19:33:00,71.9,59.0,30.03,NE,55,1.0,4.0,64,0.00,,,0.01,weatherlink.com 1.10,2013-06-09 23:33:00,
2013-06-09 19:48:00,71.7,59.0,30.03,NE,53,1.0,4.0,65,0.00,,,0.01,weatherlink.com 1.10,2013-06-09 23:48:00,
2013-06-09 20:03:00,71.2,60.0,30.04,ENE,59,2.0,3.0,68,0.00,,,0.01,weatherlink.com 1.10,2013-06-10 00:03:00,
2013-06-09 20:18:00,70.0,60.0,30.03,ENE,60,2.0,3.0,71,0.00,,,0.01,weatherlink.com 1.10,2013-06-10 00:18:00,
2013-06-09 20:33:00,69.0,61.0,30.02,ENE,68,0.0,3.0,75,0.00,,,0.01,weatherlink.com 1.10,2013-06-10 00:33:00,
2013-06-09 20:48:00,68.4,60.0,30.02,ENE,61,0.0,4.0,74,0.00,,,0.01,weatherlink.com 1.10,2013-06-10 00:48:00,
2013-06-09 21:03:00,67.6,60.0,30.02,ENE,61,1.0,2.0,77,0.00,,,0.01,weatherlink.com 1.10,2013-06-10 01:03:00,
2013-06-09 21:18:00,67.2,60.0,30.02,ENE,61,0.0,1.0,77,0.00,,,0.01,weatherlink.com 1.10,2013-06-10 01:18:00,
2013-06-09 21:33:00,66.8,60.0,30.02,ENE,61,0.0,1.0,79,0.00,,,0.01,weatherlink.com 1.10,2013-06-10 01:33:00,
2013-06-09 21:48:00,66.1,62.0,30.02,ENE,61,0.0,1.0,85,0.00,,,0.01,weatherlink.com 1.10,2013-06-10 01:48:00,
2013-06-09 22:03:00,65.2,60.0,30.01,ENE,61,0.0,2.0,83,0.00,,,0.01,weatherlink.com 1.10,2013-06-10 02:03:00,
2013-06-09 22:18:00,65.6,59.0,30.01,East,86,1.0,3.0,79,0.00,,,0.01,weatherlink.com 1.10,2013-06-10 02:18:00,
2013-06-09 22:34:00,66.3,59.0,30.01,East,86,0.0,2.0,77,0.00,,,0.01,weatherlink.com 1.10,2013-06-10 02:34:00,
2013-06-09 22:49:00,65.9,61.0,30.01,East,86,0.0,0.0,83,0.00,,,0.01,weatherlink.com 1.10,2013-06-10 02:49:00,
2013-06-09 23:04:00,64.9,59.0,30.00,East,86,0.0,1.0,81,0.00,,,0.01,weatherlink.com 1.10,2013-06-10 03:04:00,
2013-06-09 23:19:00,66.3,58.0,30.00,ESE,119,1.0,3.0,74,0.00,,,0.01,weatherlink.com 1.10,2013-06-10 03:19:00,
2013-06-09 23:34:00,69.8,57.0,30.00,SE,134,5.0,9.0,65,0.00,,,0.01,weatherlink.com 1.10,2013-06-10 03:34:00,
2013-06-09 23:49:00,70.9,58.0,29.99,ESE,111,3.0,6.0,65,0.00,,,0.01,weatherlink.com 1.10,2013-06-10 03:49:00,